Birk — V2BF5 — position and weather

sailwx.info

Track history (hours):
 
Tides and Currents Weather Stations Pressure Air Temp Water Temp Dewpoint Dewpoint Depression Visibility Wind Speed Wind Dir Waves Ship Positions

Birk

Last reported at 2017-Feb-21 20:32 UTC. Time now 2017-Oct-19 15:17 UTC.
Position N 10°38' W 061°36'.
Warning: this ship's position is months out of date.

Length 132 m; draft 5.8 m.

Type: Ship. MMSI: 304535000.

Date/timePositionNaut miles runAvg speedWind from/ knotsBaromVisibWave heightAir tempDewpointWater temp
2017-Feb-21 20:32N 10°38' W 061°36'0 0.0
2017-Feb-21 19:31N 10°38' W 061°36'0 0.0
2017-Feb-21 18:31N 10°38' W 061°36'0 0.0
2017-Feb-21 17:33N 10°38' W 061°36'3 2.6
2017-Feb-21 16:33N 10°36' W 061°38'10 9.7
2017-Feb-21 15:33N 10°30' W 061°45'9 9.1
2017-Feb-21 14:33N 10°23' W 061°52'47 6.3
2017-Feb-21 07:07N 09°58' W 061°11'  
2017-Feb-15 05:28N 10°21' W 061°53'1011.1
2017-Feb-15 04:33N 10°28' W 061°46'1110.8
2017-Feb-15 03:33N 10°35' W 061°37'7 7.4
2017-Feb-15 02:33N 10°39' W 061°31'0 0.0
2017-Feb-15 01:32N 10°39' W 061°31'0 0.0
2017-Feb-15 00:31N 10°39' W 061°31'0 0.0
2017-Feb-14 23:32N 10°39' W 061°31'0 0.0
2017-Feb-14 22:29N 10°39' W 061°31'0 0.0
2017-Feb-14 21:33N 10°39' W 061°31'0 0.0
2017-Feb-14 20:33N 10°39' W 061°31'0 0.0
2017-Feb-14 19:32N 10°39' W 061°31'0 0.0
2017-Feb-14 18:32N 10°39' W 061°31'0 0.0
2017-Feb-14 17:27N 10°39' W 061°31'0 0.0
2017-Feb-14 16:31N 10°39' W 061°31'0 0.0
2017-Feb-14 15:31N 10°39' W 061°31'0 0.0
2017-Feb-14 14:28N 10°39' W 061°31'0 0.0
2017-Feb-14 13:33N 10°39' W 061°31'0 0.0
2017-Feb-14 12:33N 10°39' W 061°31'0 0.0
2017-Feb-14 11:32N 10°39' W 061°31'0 0.0
2017-Feb-14 10:33N 10°39' W 061°31'0 0.0
2017-Feb-14 09:28N 10°39' W 061°31'0 0.0
2017-Feb-14 08:33N 10°39' W 061°31'0 0.0
2017-Feb-14 07:33N 10°39' W 061°31'0 0.2
2017-Feb-14 06:33N 10°39' W 061°31'5 5.4
2017-Feb-14 05:33N 10°38' W 061°37'0 0.1
2017-Feb-14 04:33N 10°38' W 061°37'0 0.0
2017-Feb-14 03:33N 10°38' W 061°37'0 0.0
2017-Feb-14 02:32N 10°38' W 061°37'0 0.0
2017-Feb-14 01:33N 10°38' W 061°37'0 0.1
2017-Feb-14 00:32N 10°38' W 061°37'0 0.0
2017-Feb-13 23:31N 10°38' W 061°37'0 0.0
2017-Feb-13 22:33N 10°38' W 061°37'0 0.0
2017-Feb-13 21:32N 10°38' W 061°37'0 0.0
2017-Feb-13 20:32N 10°38' W 061°37'0 0.0
2017-Feb-13 19:31N 10°38' W 061°37'0 0.0
2017-Feb-13 18:32N 10°38' W 061°37'0 0.0
2017-Feb-13 17:33N 10°38' W 061°37'0 0.1
2017-Feb-13 16:31N 10°38' W 061°37'0 0.0
2017-Feb-13 15:33N 10°38' W 061°37'0 0.0
2017-Feb-13 14:32N 10°38' W 061°37'0 0.1
2017-Feb-13 13:32N 10°38' W 061°37'0 0.0
2017-Feb-13 12:31N 10°38' W 061°37'0 0.1
2017-Feb-13 11:30N 10°38' W 061°37'0 0.1
2017-Feb-13 10:33N 10°38' W 061°37'0 0.0
2017-Feb-13 09:33N 10°38' W 061°37'0 0.0
2017-Feb-13 08:33N 10°38' W 061°37'0 0.0
2017-Feb-13 07:30N 10°38' W 061°37'0 0.0
2017-Feb-13 06:31N 10°38' W 061°37'0 0.0
2017-Feb-13 05:31N 10°38' W 061°37'0 0.0
2017-Feb-13 04:32N 10°38' W 061°37'0 0.1
2017-Feb-13 03:32N 10°38' W 061°37'0 0.0
2017-Feb-13 02:32N 10°38' W 061°37'0 0.0
2017-Feb-13 01:31N 10°38' W 061°37'0 0.0
2017-Feb-13 00:31N 10°38' W 061°37'0 0.0
2017-Feb-12 23:31N 10°38' W 061°37'0 0.1
2017-Feb-12 22:33N 10°38' W 061°37'0 0.0
2017-Feb-12 21:31N 10°38' W 061°37'0 0.0
2017-Feb-12 20:31N 10°38' W 061°37'0 0.0
2017-Feb-12 19:33N 10°38' W 061°37'0 0.0
2017-Feb-12 18:31N 10°38' W 061°37'0 0.0
2017-Feb-12 17:33N 10°38' W 061°37'0 0.1
2017-Feb-12 16:31N 10°38' W 061°37'0 0.1
2017-Feb-12 15:31N 10°38' W 061°37'0 0.1
2017-Feb-12 14:33N 10°38' W 061°37'0 0.0
2017-Feb-12 13:32N 10°38' W 061°37'0 0.1
2017-Feb-12 12:32N 10°38' W 061°37'0 0.1
2017-Feb-12 11:30N 10°38' W 061°37'0 0.1
2017-Feb-12 10:28N 10°38' W 061°37'0 0.0
2017-Feb-12 09:31N 10°38' W 061°37'0 0.0
2017-Feb-12 08:33N 10°38' W 061°37'0 0.0
2017-Feb-12 07:33N 10°38' W 061°37'0 0.0
2017-Feb-12 06:31N 10°38' W 061°37'0 0.0
2017-Feb-12 05:28N 10°38' W 061°37'0 0.1
2017-Feb-12 04:31N 10°38' W 061°37'0 0.0
2017-Feb-12 03:31N 10°38' W 061°37'0 0.1
2017-Feb-12 02:31N 10°38' W 061°37'4 4.7
2017-Feb-12 01:33N 10°34' W 061°40'10 9.9
2017-Feb-12 00:34N 10°28' W 061°47'  
Track history (hours):
 
Tides and Currents Weather Stations Pressure Air Temp Water Temp Dewpoint Dewpoint Depression Visibility Wind Speed Wind Dir Waves Ship Positions

Birk

Last reported at 2017-Feb-21 20:32 UTC. Time now 2017-Oct-19 15:17 UTC.
Position N 10°38' W 061°36'.
Warning: this ship's position is months out of date.

Length 132 m; draft 5.8 m.

Type: Ship. MMSI: 304535000.

Date/timePositionNaut miles runAvg speedWind from/ knotsBaromVisibWave heightAir tempDewpointWater temp
2017-Feb-21 20:32N 10°38' W 061°36'0 0.0
2017-Feb-21 19:31N 10°38' W 061°36'0 0.0
2017-Feb-21 18:31N 10°38' W 061°36'0 0.0
2017-Feb-21 17:33N 10°38' W 061°36'3 2.6
2017-Feb-21 16:33N 10°36' W 061°38'10 9.7
2017-Feb-21 15:33N 10°30' W 061°45'9 9.1
2017-Feb-21 14:33N 10°23' W 061°52'47 6.3
2017-Feb-21 07:07N 09°58' W 061°11'  
2017-Feb-15 05:28N 10°21' W 061°53'1011.1
2017-Feb-15 04:33N 10°28' W 061°46'1110.8
2017-Feb-15 03:33N 10°35' W 061°37'7 7.4
2017-Feb-15 02:33N 10°39' W 061°31'0 0.0
2017-Feb-15 01:32N 10°39' W 061°31'0 0.0
2017-Feb-15 00:31N 10°39' W 061°31'0 0.0
2017-Feb-14 23:32N 10°39' W 061°31'0 0.0
2017-Feb-14 22:29N 10°39' W 061°31'0 0.0
2017-Feb-14 21:33N 10°39' W 061°31'0 0.0
2017-Feb-14 20:33N 10°39' W 061°31'0 0.0
2017-Feb-14 19:32N 10°39' W 061°31'0 0.0
2017-Feb-14 18:32N 10°39' W 061°31'0 0.0
2017-Feb-14 17:27N 10°39' W 061°31'0 0.0
2017-Feb-14 16:31N 10°39' W 061°31'0 0.0
2017-Feb-14 15:31N 10°39' W 061°31'0 0.0
2017-Feb-14 14:28N 10°39' W 061°31'0 0.0
2017-Feb-14 13:33N 10°39' W 061°31'0 0.0
2017-Feb-14 12:33N 10°39' W 061°31'0 0.0
2017-Feb-14 11:32N 10°39' W 061°31'0 0.0
2017-Feb-14 10:33N 10°39' W 061°31'0 0.0
2017-Feb-14 09:28N 10°39' W 061°31'0 0.0
2017-Feb-14 08:33N 10°39' W 061°31'0 0.0
2017-Feb-14 07:33N 10°39' W 061°31'0 0.2
2017-Feb-14 06:33N 10°39' W 061°31'5 5.4
2017-Feb-14 05:33N 10°38' W 061°37'0 0.1
2017-Feb-14 04:33N 10°38' W 061°37'0 0.0
2017-Feb-14 03:33N 10°38' W 061°37'0 0.0
2017-Feb-14 02:32N 10°38' W 061°37'0 0.0
2017-Feb-14 01:33N 10°38' W 061°37'0 0.1
2017-Feb-14 00:32N 10°38' W 061°37'0 0.0
2017-Feb-13 23:31N 10°38' W 061°37'0 0.0
2017-Feb-13 22:33N 10°38' W 061°37'0 0.0
2017-Feb-13 21:32N 10°38' W 061°37'0 0.0
2017-Feb-13 20:32N 10°38' W 061°37'0 0.0
2017-Feb-13 19:31N 10°38' W 061°37'0 0.0
2017-Feb-13 18:32N 10°38' W 061°37'0 0.0
2017-Feb-13 17:33N 10°38' W 061°37'0 0.1
2017-Feb-13 16:31N 10°38' W 061°37'0 0.0
2017-Feb-13 15:33N 10°38' W 061°37'0 0.0
2017-Feb-13 14:32N 10°38' W 061°37'0 0.1
2017-Feb-13 13:32N 10°38' W 061°37'0 0.0
2017-Feb-13 12:31N 10°38' W 061°37'0 0.1
2017-Feb-13 11:30N 10°38' W 061°37'0 0.1
2017-Feb-13 10:33N 10°38' W 061°37'0 0.0
2017-Feb-13 09:33N 10°38' W 061°37'0 0.0
2017-Feb-13 08:33N 10°38' W 061°37'0 0.0
2017-Feb-13 07:30N 10°38' W 061°37'0 0.0
2017-Feb-13 06:31N 10°38' W 061°37'0 0.0
2017-Feb-13 05:31N 10°38' W 061°37'0 0.0
2017-Feb-13 04:32N 10°38' W 061°37'0 0.1
2017-Feb-13 03:32N 10°38' W 061°37'0 0.0
2017-Feb-13 02:32N 10°38' W 061°37'0 0.0
2017-Feb-13 01:31N 10°38' W 061°37'0 0.0
2017-Feb-13 00:31N 10°38' W 061°37'0 0.0
2017-Feb-12 23:31N 10°38' W 061°37'0 0.1
2017-Feb-12 22:33N 10°38' W 061°37'0 0.0
2017-Feb-12 21:31N 10°38' W 061°37'0 0.0
2017-Feb-12 20:31N 10°38' W 061°37'0 0.0
2017-Feb-12 19:33N 10°38' W 061°37'0 0.0
2017-Feb-12 18:31N 10°38' W 061°37'0 0.0
2017-Feb-12 17:33N 10°38' W 061°37'0 0.1
2017-Feb-12 16:31N 10°38' W 061°37'0 0.1
2017-Feb-12 15:31N 10°38' W 061°37'0 0.1
2017-Feb-12 14:33N 10°38' W 061°37'0 0.0
2017-Feb-12 13:32N 10°38' W 061°37'0 0.1
2017-Feb-12 12:32N 10°38' W 061°37'0 0.1
2017-Feb-12 11:30N 10°38' W 061°37'0 0.1
2017-Feb-12 10:28N 10°38' W 061°37'0 0.0
2017-Feb-12 09:31N 10°38' W 061°37'0 0.0
2017-Feb-12 08:33N 10°38' W 061°37'0 0.0
2017-Feb-12 07:33N 10°38' W 061°37'0 0.0
2017-Feb-12 06:31N 10°38' W 061°37'0 0.0
2017-Feb-12 05:28N 10°38' W 061°37'0 0.1
2017-Feb-12 04:31N 10°38' W 061°37'0 0.0
2017-Feb-12 03:31N 10°38' W 061°37'0 0.1
2017-Feb-12 02:31N 10°38' W 061°37'4 4.7
2017-Feb-12 01:33N 10°34' W 061°40'10 9.9
2017-Feb-12 00:34N 10°28' W 061°47'  

Dump ship's entire track history